aviador You're here:

KFRM Decoded Metar

FAIRMONT MUNI in MN, USA
Report Time2017-09-21 12:56:00
UTC Time2017-09-21 13:58:35
Flight Rules vfr VFR
Wind100° at 03 kt
W.Decomp.*RWY 13: 2.5 kt HW 1.7 kt LCW
RWY 02: 0.7 kt HW 2.9 kt RCW
W.Rank100° ranks 31
Current wind is below 100° avg. (7.2)
Visibility9999 m
Phenomena:N/A
Clouds:N/A
Expected CloudBase > 800 ft AGL from Temp-Dew spread
CeilingNone
Temp12°C (ISA -1)
Dew Point10°C (88% RH)
AAT11.0°C
QNH1014 hPa
Density Alt1,214 ft
Elevation1,161 ft
Report Wrong Elevation
Raw Report
KFRM 211256Z AUTO 10003KT 10SM CLR 12/10 A2995 RMK AO2 SLP144
T01220100 $=

Extra information for KFRM:More info

Metar Taf Metar & Taf Last 4 Metars F.Rules Stats Wind Profile Meteogram Temp Stats Airport Information Weather charts Add Link Nearby VenuesMetar ALERT Operation Metar Decoded Social comments

AIRNAV info for KFRM